Time;durP1;ratioP1;P1;durP2;ratioP2;P2;SDS_P1;SDS_P2;PMS_P1;PMS_P2;Temp;Humidity;BMP_temperature;BMP_pressure;BME280_temperature;BME280_humidity;BME280_pressure;Samples;Min_cycle;Max_cycle;Signal;HPM_P1;HPM_P2
2022/03/19 00:02:24;;;;;;;24.35;15.50;;;;;;;8.94;78.96;101590.53;5020877;28;20359;-79
2022/03/19 00:04:49;;;;;;;20.90;14.90;;;;;;;8.92;79.97;101597.63;5030162;28;20029;-80
2022/03/19 00:07:16;;;;;;;24.10;16.73;;;;;;;8.90;79.87;101595.09;5030618;28;20038;-79
2022/03/19 00:09:43;;;;;;;20.98;15.27;;;;;;;8.92;79.52;101600.28;5030121;28;20037;-79
2022/03/19 00:12:14;;;;;;;22.00;15.20;;;;;;;8.89;80.05;101597.81;5029587;28;20116;-78
2022/03/19 00:14:44;;;;;;;22.23;15.82;;;;;;;8.90;80.24;101594.22;5030268;28;20442;-80
2022/03/19 00:17:10;;;;;;;23.00;14.98;;;;;;;8.89;79.70;101596.03;5030470;28;20041;-79
2022/03/19 00:19:39;;;;;;;19.75;15.15;;;;;;;8.91;79.82;101595.94;5030182;28;20037;-77
2022/03/19 00:22:06;;;;;;;20.10;15.20;;;;;;;8.88;79.90;101596.13;5030549;28;20036;-76
2022/03/19 00:24:32;;;;;;;21.25;16.30;;;;;;;8.89;79.55;101603.09;5014192;28;20076;-79
2022/03/19 00:26:58;;;;;;;26.25;16.80;;;;;;;8.85;79.45;101598.91;5023359;28;20037;-77
2022/03/19 00:29:24;;;;;;;24.83;15.45;;;;;;;8.82;79.55;101609.59;5028513;28;20392;-79
2022/03/19 00:31:50;;;;;;;20.50;14.95;;;;;;;8.80;79.91;101616.72;5019913;28;20052;-77
2022/03/19 00:34:16;;;;;;;22.55;15.23;;;;;;;8.81;79.76;101619.28;5030247;28;20080;-79
2022/03/19 00:36:42;;;;;;;19.95;14.80;;;;;;;8.83;79.81;101613.94;5029678;28;20458;-78
2022/03/19 00:39:08;;;;;;;23.45;14.75;;;;;;;8.84;79.76;101620.88;5029444;28;20480;-78
2022/03/19 00:41:34;;;;;;;19.63;15.50;;;;;;;8.83;79.83;101619.22;5029862;28;20037;-78
2022/03/19 00:43:59;;;;;;;21.92;15.68;;;;;;;8.83;79.72;101624.47;5031701;28;20026;-78
2022/03/19 00:46:25;;;;;;;21.63;16.05;;;;;;;8.84;79.83;101615.63;5034025;28;20049;-77
2022/03/19 00:48:50;;;;;;;20.55;14.85;;;;;;;8.84;80.00;101620.88;5033648;28;20053;-77
2022/03/19 00:51:17;;;;;;;21.00;16.10;;;;;;;8.83;79.39;101614.78;5033666;28;20029;-78
2022/03/19 00:53:42;;;;;;;24.02;15.70;;;;;;;8.85;79.29;101619.97;5033162;28;20370;-78
2022/03/19 00:56:08;;;;;;;24.42;15.60;;;;;;;8.85;79.48;101617.31;5033763;28;20082;-77
2022/03/19 00:58:33;;;;;;;20.83;15.65;;;;;;;8.85;79.36;101612.06;5033241;28;20500;-75
2022/03/19 01:01:00;;;;;;;22.13;15.73;;;;;;;8.87;79.70;101618.09;5033487;28;20033;-78
2022/03/19 01:03:26;;;;;;;21.45;15.80;;;;;;;8.88;79.24;101617.19;5032981;28;20038;-78
2022/03/19 01:05:51;;;;;;;24.33;15.05;;;;;;;8.88;79.35;101617.19;5033248;28;20030;-78
2022/03/19 01:08:17;;;;;;;21.88;15.93;;;;;;;8.87;78.55;101616.31;5032915;28;20373;-78
2022/03/19 01:10:42;;;;;;;24.17;16.45;;;;;;;8.85;79.20;101617.31;5033226;28;20335;-78
2022/03/19 01:13:08;;;;;;;24.67;16.00;;;;;;;8.83;79.34;101619.22;5033273;28;20040;-78
2022/03/19 01:15:34;;;;;;;23.48;15.02;;;;;;;8.82;78.73;101615.72;5033254;28;20032;-77
2022/03/19 01:18:00;;;;;;;20.48;15.52;;;;;;;8.79;78.87;101617.66;5032377;28;20063;-79
2022/03/19 01:20:26;;;;;;;24.02;15.43;;;;;;;8.78;78.67;101615.94;5023308;28;20082;-78
2022/03/19 01:22:52;;;;;;;20.70;14.50;;;;;;;8.76;78.90;101615.19;5032305;28;20033;-77
2022/03/19 01:25:19;;;;;;;20.33;14.70;;;;;;;8.75;79.32;101611.72;5032758;28;20477;-78
2022/03/19 01:27:47;;;;;;;22.73;15.15;;;;;;;8.74;78.85;101604.75;5032646;28;20580;-78
2022/03/19 01:30:17;;;;;;;18.95;14.07;;;;;;;8.73;79.03;101608.28;5032797;28;20167;-78
2022/03/19 01:32:44;;;;;;;27.10;15.30;;;;;;;8.71;79.47;101609.31;5032345;28;20112;-78
2022/03/19 01:35:10;;;;;;;19.33;15.02;;;;;;;8.70;79.55;101607.63;5032390;28;20342;-79
2022/03/19 01:37:37;;;;;;;20.80;15.50;;;;;;;8.72;78.91;101600.50;5032230;28;20084;-79
2022/03/19 01:40:04;;;;;;;19.00;14.35;;;;;;;8.69;79.27;101601.50;5023323;28;20084;-76
2022/03/19 01:42:32;;;;;;;18.55;14.18;;;;;;;8.71;78.72;101601.44;5028756;28;20033;-78
2022/03/19 01:44:59;;;;;;;23.92;15.85;;;;;;;8.73;78.43;101596.91;5028097;28;20445;-75
2022/03/19 01:47:29;;;;;;;22.13;14.75;;;;;;;8.70;79.10;101603.22;5032430;28;20029;-77
2022/03/19 01:49:56;;;;;;;25.08;14.73;;;;;;;8.72;78.59;101600.50;5031695;28;20029;-77
2022/03/19 01:52:21;;;;;;;18.58;13.93;;;;;;;8.71;78.58;101604.06;5022642;28;20048;-78
2022/03/19 01:54:49;;;;;;;23.45;14.63;;;;;;;8.72;78.73;101605.78;5031738;28;20037;-78
2022/03/19 01:57:18;;;;;;;17.88;14.02;;;;;;;8.72;78.30;101611.03;5025131;28;20033;-78
2022/03/19 01:59:45;;;;;;;18.88;13.95;;;;;;;8.72;78.07;101598.69;5028976;28;20076;-78
2022/03/19 02:02:12;;;;;;;17.73;14.57;;;;;;;8.74;78.48;101603.88;5030079;28;20500;-78
2022/03/19 02:04:40;;;;;;;21.42;14.82;;;;;;;8.77;78.38;101604.59;5030500;28;20029;-77
2022/03/19 02:07:10;;;;;;;21.77;14.10;;;;;;;8.78;78.20;101608.91;5032034;28;20383;-77
2022/03/19 02:09:37;;;;;;;22.02;15.05;;;;;;;8.78;77.57;101615.94;5032002;28;20030;-78
2022/03/19 02:12:03;;;;;;;21.70;14.23;;;;;;;8.80;77.15;101604.41;5022576;28;20038;-79
2022/03/19 02:14:32;;;;;;;21.10;14.63;;;;;;;8.80;77.50;101603.56;5032412;28;20461;-80
2022/03/19 02:17:00;;;;;;;23.02;14.15;;;;;;;8.84;77.35;101610.34;5027745;28;20041;-77
2022/03/19 02:19:25;;;;;;;19.88;14.18;;;;;;;8.85;77.65;101606.78;5032117;28;20033;-77
2022/03/19 02:21:51;;;;;;;16.08;13.52;;;;;;;8.85;76.97;101604.16;5031436;28;20025;-78
2022/03/19 02:27:02;;;;;;;19.15;14.93;;;;;;;8.84;77.09;101605.09;5028388;28;20103;-78
2022/03/19 02:29:28;;;;;;;23.95;15.55;;;;;;;8.84;76.98;101610.34;5031755;28;20036;-78
2022/03/19 02:31:56;;;;;;;20.55;14.90;;;;;;;8.83;76.14;101611.31;5031583;28;20038;-78
2022/03/19 02:34:22;;;;;;;19.08;14.80;;;;;;;8.83;76.64;101603.41;5032155;28;20406;-78
2022/03/19 02:36:47;;;;;;;21.48;14.90;;;;;;;8.85;76.35;101602.38;5031038;28;20031;-78
2022/03/19 02:39:21;;;;;;;23.05;16.05;;;;;;;8.84;76.07;101610.34;5030960;28;20056;-78
2022/03/19 02:41:48;;;;;;;20.92;14.57;;;;;;;8.84;76.69;101613.84;5031009;28;20033;-79
2022/03/19 02:44:16;;;;;;;18.55;13.65;;;;;;;8.86;75.96;101619.03;5031333;28;20025;-78
2022/03/19 02:46:44;;;;;;;20.80;14.93;;;;;;;8.84;76.08;101611.19;5031482;28;20047;-77
2022/03/19 02:49:10;;;;;;;20.67;14.98;;;;;;;8.85;76.20;101614.69;5031317;28;20549;-77
2022/03/19 02:51:38;;;;;;;23.38;14.57;;;;;;;8.85;75.95;101619.97;5031335;28;20428;-78
2022/03/19 02:54:05;;;;;;;20.17;14.35;;;;;;;8.84;76.03;101612.97;5020325;28;20040;-77
2022/03/19 02:56:33;;;;;;;19.33;14.73;;;;;;;8.83;76.09;101614.78;5031389;28;20497;-78
2022/03/19 02:59:05;;;;;;;21.20;13.75;;;;;;;8.83;76.42;101616.56;5026792;28;20036;-78
2022/03/19 03:01:31;;;;;;;20.65;14.43;;;;;;;8.83;76.51;101624.47;5027577;28;20066;-77
2022/03/19 03:03:56;;;;;;;16.23;12.75;;;;;;;8.82;75.70;101622.75;5030872;28;20029;-78
2022/03/19 03:06:22;;;;;;;20.17;14.43;;;;;;;8.84;75.62;101631.41;5030804;28;20047;-77
2022/03/19 03:08:47;;;;;;;20.15;14.63;;;;;;;8.82;75.87;101618.34;5030274;28;20112;-78
2022/03/19 03:11:13;;;;;;;22.73;14.75;;;;;;;8.83;76.01;101629.75;5031322;28;20056;-78
2022/03/19 03:13:38;;;;;;;21.23;14.82;;;;;;;8.80;76.32;101625.47;5022801;28;20041;-78
2022/03/19 03:16:04;;;;;;;23.55;14.48;;;;;;;8.79;76.27;101625.53;5030852;28;20029;-78
2022/03/19 03:18:30;;;;;;;19.27;14.77;;;;;;;8.80;75.55;101627.25;5030860;28;20033;-77
2022/03/19 03:20:58;;;;;;;22.15;14.68;;;;;;;8.80;75.88;101625.47;5030155;28;20026;-78
2022/03/19 03:23:23;;;;;;;17.50;14.15;;;;;;;8.79;75.34;101625.53;5032947;28;20103;-78
2022/03/19 03:25:49;;;;;;;17.92;14.25;;;;;;;8.79;75.58;101618.50;5034166;28;20029;-78
2022/03/19 03:28:14;;;;;;;20.52;14.07;;;;;;;8.77;75.16;101615.13;5035043;28;20033;-78
2022/03/19 03:30:40;;;;;;;17.02;13.95;;;;;;;8.76;75.38;101618.69;5038844;28;20033;-76
2022/03/19 03:33:05;;;;;;;20.35;13.93;;;;;;;8.73;76.10;101623.25;5038146;28;20030;-77
2022/03/19 03:35:30;;;;;;;20.20;13.88;;;;;;;8.72;75.83;101621.56;5031083;28;20044;-79
2022/03/19 03:37:56;;;;;;;16.60;13.77;;;;;;;8.70;74.99;101613.75;5030164;28;20029;-79
2022/03/19 03:40:21;;;;;;;16.38;13.32;;;;;;;8.70;75.19;101607.63;5030617;28;20045;-76
2022/03/19 03:42:47;;;;;;;19.25;14.15;;;;;;;8.66;74.82;101595.56;5030440;28;20358;-79
2022/03/19 03:45:13;;;;;;;19.45;13.82;;;;;;;8.64;75.18;101603.53;5021448;28;20523;-78
2022/03/19 03:47:39;;;;;;;20.70;13.93;;;;;;;8.62;74.09;101606.25;5030942;28;20029;-78
2022/03/19 03:50:05;;;;;;;19.48;14.13;;;;;;;8.60;74.48;101602.81;5030884;28;20033;-78
2022/03/19 03:52:30;;;;;;;18.77;13.70;;;;;;;8.57;75.10;101608.25;5030455;28;20021;-77
2022/03/19 03:54:56;;;;;;;17.35;14.57;;;;;;;8.55;74.89;101610.09;5029543;28;20496;-78
2022/03/19 03:57:22;;;;;;;19.23;14.15;;;;;;;8.51;75.12;101598.06;5030144;28;20111;-76
2022/03/19 03:59:51;;;;;;;21.88;14.02;;;;;;;8.48;75.10;101603.47;5020148;28;20033;-78
2022/03/19 04:02:17;;;;;;;17.70;13.77;;;;;;;8.45;75.27;101614.16;5030018;28;20470;-77
2022/03/19 04:04:43;;;;;;;23.20;14.10;;;;;;;8.41;75.28;101604.72;5029761;28;20098;-77
2022/03/19 04:07:08;;;;;;;19.90;13.88;;;;;;;8.39;75.05;101609.22;5030000;28;20029;-77
2022/03/19 04:09:34;;;;;;;21.33;15.27;;;;;;;8.38;74.85;101612.78;5029454;28;20117;-78
2022/03/19 04:12:00;;;;;;;22.77;15.30;;;;;;;8.38;75.09;101612.78;5029557;28;20038;-80
2022/03/19 04:14:25;;;;;;;18.05;14.40;;;;;;;8.35;75.02;101607.69;5016575;28;20060;-80
2022/03/19 04:16:51;;;;;;;22.05;14.55;;;;;;;8.37;75.22;101616.31;5029534;28;20041;-79
2022/03/19 04:19:16;;;;;;;22.95;15.23;;;;;;;8.32;75.25;101613.09;5028348;28;20540;-79
2022/03/19 04:21:42;;;;;;;19.67;15.10;;;;;;;8.27;75.77;101609.81;5029453;28;20057;-79
2022/03/19 04:24:07;;;;;;;17.77;14.45;;;;;;;8.17;76.09;101613.84;5029389;28;20029;-78
2022/03/19 04:26:33;;;;;;;21.20;15.32;;;;;;;8.09;76.49;101616.00;5030083;28;20025;-79
2022/03/19 04:28:58;;;;;;;26.75;15.45;;;;;;;7.99;76.73;101605.09;5029468;28;20034;-79
2022/03/19 04:31:23;;;;;;;21.98;15.13;;;;;;;7.96;76.64;101604.38;5029722;28;20456;-79
2022/03/19 04:33:49;;;;;;;22.35;15.68;;;;;;;7.93;77.50;101615.06;5019773;28;20121;-79
2022/03/19 04:36:30;;;;;;;23.40;15.20;;;;;;;7.94;77.16;101622.03;5029694;28;20115;-78
2022/03/19 04:38:55;;;;;;;;;;;;;;;7.88;77.49;101617.06;5029048;28;20045;-79
2022/03/19 04:41:21;;;;;;;24.27;15.13;;;;;;;7.82;77.85;101618.22;5029434;28;19990;-79
2022/03/19 04:43:46;;;;;;;20.95;15.15;;;;;;;7.76;77.77;101618.53;5028935;28;20044;-79
2022/03/19 04:46:12;;;;;;;24.67;15.55;;;;;;;7.70;78.25;101619.66;5029458;28;20025;-79
2022/03/19 04:48:37;;;;;;;21.77;15.20;;;;;;;7.66;78.69;101622.50;5029268;28;20033;-78
2022/03/19 04:51:03;;;;;;;20.80;15.50;;;;;;;7.64;78.50;101627.84;5029241;28;20068;-78
2022/03/19 04:53:29;;;;;;;22.48;16.70;;;;;;;7.55;78.04;101624.78;5029133;28;20405;-79
2022/03/19 04:55:54;;;;;;;20.10;14.15;;;;;;;7.50;77.84;101622.38;5028927;28;20029;-79
2022/03/19 04:58:20;;;;;;;21.45;15.50;;;;;;;7.47;77.96;101627.81;5029166;28;20061;-79
2022/03/19 05:00:45;;;;;;;21.27;14.88;;;;;;;7.40;77.84;101626.38;5029069;28;20470;-79
2022/03/19 05:03:13;;;;;;;21.35;15.68;;;;;;;7.37;77.64;101626.50;5029479;28;20052;-77
2022/03/19 05:05:39;;;;;;;24.40;14.82;;;;;;;7.39;78.00;101628.16;5029183;28;20026;-78
2022/03/19 05:08:05;;;;;;;19.33;14.75;;;;;;;7.43;77.90;101623.59;5029252;28;20029;-79
2022/03/19 05:13:17;;;;;;;24.05;15.27;;;;;;;7.44;78.18;101627.06;5027414;28;20064;-78
2022/03/19 05:15:43;;;;;;;20.20;14.50;;;;;;;7.48;77.41;101631.28;5020153;28;20504;-78
2022/03/19 05:18:08;;;;;;;20.83;15.65;;;;;;;7.49;76.34;101623.31;5029433;28;20037;-78
2022/03/19 05:20:35;;;;;;;22.13;13.98;;;;;;;7.47;76.55;101626.94;5028280;28;20162;-76
2022/03/19 05:23:08;;;;;;;20.38;14.30;;;;;;;7.47;76.38;101626.94;5028976;28;20044;-78
2022/03/19 05:25:34;;;;;;;19.40;14.85;;;;;;;7.49;76.31;101630.34;5026019;28;20025;-78
2022/03/19 05:27:59;;;;;;;21.77;16.05;;;;;;;7.45;77.25;101629.66;5028508;28;20535;-79
2022/03/19 05:30:25;;;;;;;25.17;15.48;;;;;;;7.38;78.38;101636.09;5031237;28;20041;-78
2022/03/19 05:32:51;;;;;;;22.55;15.05;;;;;;;7.26;79.57;101634.03;5032478;28;20042;-78
2022/03/19 05:35:18;;;;;;;23.52;15.35;;;;;;;7.19;80.26;101622.97;5032689;28;20040;-76
2022/03/19 05:37:44;;;;;;;25.85;17.63;;;;;;;7.14;80.90;101621.47;5032501;28;20029;-78
2022/03/19 05:40:10;;;;;;;24.80;15.88;;;;;;;7.06;81.89;101623.63;5032633;28;20041;-79
2022/03/19 05:42:36;;;;;;;20.75;15.55;;;;;;;6.97;82.61;101620.50;5033169;28;20087;-78
2022/03/19 05:45:02;;;;;;;25.13;16.95;;;;;;;6.90;83.47;101626.94;5032237;28;20046;-77
2022/03/19 05:47:29;;;;;;;24.38;16.77;;;;;;;6.87;83.92;101627.09;5029044;28;20112;-78
2022/03/19 05:49:55;;;;;;;27.45;15.65;;;;;;;6.87;83.59;101632.34;5031782;28;20029;-78
2022/03/19 05:52:21;;;;;;;23.85;16.55;;;;;;;6.88;83.28;101633.19;5032401;28;20094;-79
2022/03/19 05:54:47;;;;;;;27.02;16.38;;;;;;;6.85;82.87;101623.66;5032434;28;20176;-78
2022/03/19 05:57:12;;;;;;;22.25;16.27;;;;;;;6.85;82.93;101626.28;5032739;28;20121;-77
2022/03/19 05:59:38;;;;;;;24.27;15.73;;;;;;;6.84;82.88;101623.72;5032352;28;20492;-77
2022/03/19 06:02:05;;;;;;;20.73;15.68;;;;;;;6.80;82.88;101617.78;5033805;28;20041;-78
2022/03/19 06:04:32;;;;;;;23.17;15.80;;;;;;;6.86;83.06;101619.28;5030123;28;20025;-78
2022/03/19 06:06:58;;;;;;;23.92;16.55;;;;;;;6.90;83.50;101613.81;5033232;28;20196;-78
2022/03/19 06:09:24;;;;;;;27.70;16.08;;;;;;;6.92;83.09;101619.84;5033516;28;20030;-78
2022/03/19 06:11:49;;;;;;;22.65;15.00;;;;;;;6.91;83.54;101623.38;5033377;28;20092;-79
2022/03/19 06:14:15;;;;;;;28.17;16.50;;;;;;;6.92;83.50;101626.88;5034368;28;20509;-79
2022/03/19 06:16:40;;;;;;;26.58;16.15;;;;;;;6.93;83.69;101616.31;5033853;28;20051;-78
2022/03/19 06:19:06;;;;;;;24.95;16.20;;;;;;;6.94;83.53;101622.41;5033100;28;20120;-79
2022/03/19 06:21:31;;;;;;;25.95;16.38;;;;;;;6.95;83.79;101614.44;5033624;28;20435;-79
2022/03/19 06:23:57;;;;;;;23.35;15.13;;;;;;;7.01;83.72;101615.13;5032036;28;20029;-78
2022/03/19 06:26:23;;;;;;;22.25;15.50;;;;;;;7.06;83.56;101621.00;5031598;28;20025;-78
2022/03/19 06:28:50;;;;;;;29.45;16.10;;;;;;;7.11;83.26;101614.63;5031199;28;20036;-78
2022/03/19 06:31:16;;;;;;;22.08;16.10;;;;;;;7.16;82.75;101606.53;5021614;28;20478;-78
2022/03/19 06:33:42;;;;;;;29.05;16.25;;;;;;;7.26;82.09;101615.66;5021361;28;20040;-78
2022/03/19 06:38:53;;;;;;;21.55;15.93;;;;;;;7.13;81.99;101606.69;5030637;28;20401;-77
2022/03/19 06:41:21;;;;;;;24.80;15.90;;;;;;;7.14;82.05;101613.59;5030371;28;20046;-79
2022/03/19 06:43:47;;;;;;;25.67;17.85;;;;;;;7.06;81.75;101615.75;5030711;28;20027;-78
2022/03/19 06:46:13;;;;;;;23.70;15.90;;;;;;;7.00;82.09;101603.75;5030793;28;20040;-78
2022/03/19 06:48:38;;;;;;;24.02;16.77;;;;;;;7.03;83.05;101613.25;5020990;28;20037;-78
2022/03/19 06:51:04;;;;;;;23.70;16.77;;;;;;;7.06;82.81;101610.50;5030504;28;20036;-79
2022/03/19 06:53:30;;;;;;;26.30;15.98;;;;;;;7.10;83.20;101601.56;5031038;28;20089;-78
2022/03/19 06:55:55;;;;;;;23.80;17.83;;;;;;;7.17;83.34;101603.84;5020891;28;20029;-79
2022/03/19 06:58:21;;;;;;;27.00;17.02;;;;;;;7.16;83.26;101603.91;5031187;28;20113;-79
2022/03/19 07:00:49;;;;;;;24.30;17.60;;;;;;;7.15;83.86;101602.19;5031319;28;20026;-78
2022/03/19 07:03:14;;;;;;;23.60;16.40;;;;;;;7.13;83.79;101602.25;5021278;28;20397;-77
2022/03/19 07:05:40;;;;;;;26.95;17.15;;;;;;;7.16;83.52;101596.03;5031162;28;20032;-78
2022/03/19 07:08:08;;;;;;;24.00;17.77;;;;;;;7.22;83.41;101587.84;5022216;28;20068;-78
2022/03/19 07:10:35;;;;;;;31.45;18.67;;;;;;;7.35;83.08;101588.97;5030911;28;20073;-77
2022/03/19 07:13:00;;;;;;;31.17;18.85;;;;;;;7.37;82.87;101592.38;5027571;28;20029;-78
2022/03/19 07:15:28;;;;;;;22.40;17.25;;;;;;;7.36;82.42;101593.31;5031067;28;20033;-77
2022/03/19 07:17:55;;;;;;;24.10;17.15;;;;;;;7.37;82.61;101595.00;5030338;28;20048;-78
2022/03/19 07:20:21;;;;;;;29.25;18.15;;;;;;;7.44;82.26;101601.66;5030400;28;20046;-77
2022/03/19 07:22:51;;;;;;;31.70;18.38;;;;;;;7.45;82.26;101595.50;5030811;28;20021;-77
2022/03/19 07:25:19;;;;;;;21.48;17.55;;;;;;;7.42;82.22;101586.94;5024863;28;20541;-78
2022/03/19 07:27:45;;;;;;;24.25;16.92;;;;;;;7.37;81.73;101589.75;5026543;28;20037;-78
2022/03/19 07:30:12;;;;;;;23.30;16.98;;;;;;;7.41;82.29;101586.06;5039543;28;20057;-79
2022/03/19 07:32:37;;;;;;;33.13;17.50;;;;;;;7.44;82.02;101585.91;5041509;28;20041;-80
2022/03/19 07:35:04;;;;;;;26.10;16.27;;;;;;;7.45;81.32;101603.38;5044729;28;20034;-80
2022/03/19 07:37:30;;;;;;;20.95;16.08;;;;;;;7.51;80.26;101587.31;5049803;28;20033;-79
2022/03/19 07:39:57;;;;;;;25.75;17.10;;;;;;;7.62;80.26;101590.28;5036544;28;20049;-80
2022/03/19 07:42:22;;;;;;;28.05;16.73;;;;;;;7.81;79.84;101591.09;5033052;28;20037;-79
2022/03/19 07:44:48;;;;;;;21.88;16.58;;;;;;;8.01;78.56;101590.06;5030346;28;20450;-79
2022/03/19 07:47:15;;;;;;;21.98;15.80;;;;;;;8.21;77.34;101586.44;5031216;28;20108;-80
2022/03/19 07:49:40;;;;;;;24.98;15.77;;;;;;;8.43;75.95;101589.69;5031620;28;20036;-80
2022/03/19 07:52:08;;;;;;;23.90;15.27;;;;;;;8.53;73.87;101590.94;5030045;28;20040;-80
2022/03/19 07:54:36;;;;;;;20.40;14.85;;;;;;;8.67;73.34;101591.97;5031134;28;20116;-80
2022/03/19 07:57:06;;;;;;;23.45;15.52;;;;;;;8.76;72.72;101589.72;5031009;28;20521;-81
2022/03/19 07:59:33;;;;;;;18.58;13.15;;;;;;;8.94;73.00;101591.38;5031394;28;20030;-80
2022/03/19 08:01:59;;;;;;;24.60;14.25;;;;;;;9.14;71.38;101587.63;5031379;28;20107;-79
2022/03/19 08:04:25;;;;;;;22.17;14.10;;;;;;;9.25;70.25;101590.53;5031498;28;20041;-80
2022/03/19 08:06:53;;;;;;;18.85;13.60;;;;;;;9.43;69.97;101589.50;5030512;28;20026;-80
2022/03/19 08:09:19;;;;;;;19.67;14.73;;;;;;;9.54;69.09;101582.78;5030768;28;20363;-81
2022/03/19 08:11:45;;;;;;;20.83;14.10;;;;;;;9.65;68.42;101583.03;5030503;28;20112;-78
2022/03/19 08:14:14;;;;;;;19.45;13.27;;;;;;;9.82;68.44;101580.28;5030167;28;20124;-78
2022/03/19 08:16:40;;;;;;;18.75;12.98;;;;;;;9.88;67.61;101584.34;5029927;28;20025;-80
2022/03/19 08:19:06;;;;;;;22.45;12.98;;;;;;;9.91;67.33;101578.88;5029876;28;20095;-82
2022/03/19 08:21:31;;;;;;;25.92;15.10;;;;;;;9.98;67.58;101570.53;5029578;28;20393;-79
2022/03/19 08:23:57;;;;;;;16.52;13.45;;;;;;;10.04;67.25;101566.69;5029798;28;20029;-80
2022/03/19 08:26:23;;;;;;;22.70;13.95;;;;;;;10.11;67.88;101571.50;5030099;28;20076;-79
2022/03/19 08:28:49;;;;;;;19.23;12.57;;;;;;;10.14;67.67;101566.03;5029484;28;20033;-78
2022/03/19 08:31:14;;;;;;;23.02;13.75;;;;;;;10.20;67.26;101565.69;5033497;28;20086;-79
2022/03/19 08:33:40;;;;;;;18.17;13.02;;;;;;;10.15;65.80;101561.59;5035101;28;20051;-80
2022/03/19 08:36:05;;;;;;;19.45;13.32;;;;;;;10.10;65.90;101548.69;5033387;28;20048;-81
2022/03/19 08:41:15;;;;;;;19.33;13.50;;;;;;;10.18;65.37;101549.13;5028187;28;20057;-79
2022/03/19 08:43:40;;;;;;;18.70;14.13;;;;;;;10.19;66.23;101542.88;5029470;28;20025;-78
2022/03/19 08:46:06;;;;;;;23.42;14.68;;;;;;;10.25;65.74;101545.16;5032188;28;20052;-78
2022/03/19 08:48:32;;;;;;;20.92;14.80;;;;;;;10.34;65.23;101542.91;5025187;28;20827;-80
2022/03/19 08:51:39;;;;;;;19.50;13.98;;;;;;;10.42;65.74;101541.53;5036792;28;20029;-80
2022/03/19 08:53:44;;;;;;;17.23;13.52;;;;;;;10.52;65.28;101533.88;5033129;28;20171;-77
2022/03/19 08:56:09;;;;;;;19.60;13.70;;;;;;;10.52;64.90;101533.88;5024210;28;20494;-76
2022/03/19 08:58:35;;;;;;;19.80;14.18;;;;;;;10.47;64.93;101533.31;5029965;28;20126;-76
2022/03/19 09:01:00;;;;;;;18.55;13.43;;;;;;;10.48;65.11;101535.03;5028479;28;20078;-77
2022/03/19 09:03:26;;;;;;;20.05;13.45;;;;;;;10.47;64.80;101525.41;5009940;28;20126;-79
2022/03/19 09:05:52;;;;;;;21.58;13.70;;;;;;;10.48;65.05;101527.09;5031246;28;20037;-78
2022/03/19 09:08:18;;;;;;;19.83;13.27;;;;;;;10.41;64.29;101525.78;5032309;28;20034;-79
2022/03/19 09:10:43;;;;;;;22.40;14.18;;;;;;;10.36;63.72;101527.84;5014025;28;20033;-78
2022/03/19 09:13:09;;;;;;;16.45;13.18;;;;;;;10.36;64.30;101527.84;5031782;28;20863;-77
2022/03/19 09:15:34;;;;;;;22.02;13.27;;;;;;;10.42;64.70;101511.66;5031792;28;20028;-78
2022/03/19 09:17:59;;;;;;;19.85;13.65;;;;;;;10.49;64.00;101512.94;5031237;28;20056;-75
2022/03/19 09:20:26;;;;;;;18.85;14.35;;;;;;;10.54;63.36;101505.59;5031662;28;20474;-78
2022/03/19 09:22:52;;;;;;;21.48;14.38;;;;;;;10.54;62.50;101508.25;5031591;28;20033;-79
2022/03/19 09:25:17;;;;;;;18.10;13.05;;;;;;;10.56;62.11;101508.97;5031778;28;20549;-77
2022/03/19 09:27:43;;;;;;;17.00;13.07;;;;;;;10.60;62.09;101499.94;5031469;28;20437;-78
2022/03/19 09:30:09;;;;;;;15.10;13.13;;;;;;;10.62;61.62;101500.69;5031978;28;20040;-76
2022/03/19 09:32:35;;;;;;;21.27;14.05;;;;;;;10.70;60.99;101498.41;5031913;28;20068;-75
2022/03/19 09:35:01;;;;;;;19.40;13.40;;;;;;;10.80;60.31;101488.97;5031348;28;20080;-76
2022/03/19 09:37:28;;;;;;;16.48;13.05;;;;;;;10.88;59.18;101491.13;5032368;28;20120;-78
2022/03/19 09:39:53;;;;;;;20.75;13.50;;;;;;;10.95;58.24;101487.16;5031190;28;20166;-78
2022/03/19 09:42:18;;;;;;;15.88;12.27;;;;;;;11.04;56.87;101474.19;5031902;28;20466;-78
2022/03/19 09:44:45;;;;;;;14.32;11.40;;;;;;;11.12;55.33;101470.22;5032690;28;20025;-78
2022/03/19 09:47:13;;;;;;;15.43;11.00;;;;;;;11.16;54.60;101463.78;5033087;28;20041;-77
2022/03/19 09:49:38;;;;;;;17.63;11.95;;;;;;;11.26;54.55;101464.84;5033648;28;20421;-77
2022/03/19 09:52:05;;;;;;;16.25;12.07;;;;;;;11.34;54.05;101459.94;5023624;28;20071;-76
2022/03/19 09:54:30;;;;;;;14.85;12.13;;;;;;;11.44;54.28;101451.28;5029037;28;20037;-78
2022/03/19 09:56:57;;;;;;;14.35;11.00;;;;;;;11.47;53.14;101444.94;5032055;28;20079;-79
2022/03/19 09:59:23;;;;;;;18.20;11.57;;;;;;;11.57;52.77;101443.38;5032857;28;20057;-80
2022/03/19 10:01:48;;;;;;;15.20;10.85;;;;;;;11.66;51.51;101445.41;5032685;28;20057;-77
2022/03/19 10:04:19;;;;;;;13.52;10.40;;;;;;;11.74;51.15;101443.09;5032993;28;20121;-75
2022/03/19 10:09:42;;;;;;;14.52;11.10;;;;;;;11.88;48.93;101435.09;5052383;28;20130;-78
2022/03/19 10:12:23;;;;;;;14.15;10.27;;;;;;;11.86;46.85;101429.03;5055835;28;20026;-80
2022/03/19 10:14:54;;;;;;;11.48;10.25;;;;;;;11.94;47.14;101427.69;5048819;28;20030;-80
2022/03/19 10:17:33;;;;;;;15.85;11.27;;;;;;;12.05;47.50;101425.13;5047124;28;20033;-79
2022/03/19 10:20:02;;;;;;;14.35;10.95;;;;;;;12.13;47.79;101414.88;5033883;28;20422;-81
2022/03/19 10:22:29;;;;;;;16.33;12.18;;;;;;;12.15;48.31;101413.78;5034567;28;20536;-82
2022/03/19 10:25:10;;;;;;;17.10;12.38;;;;;;;12.15;48.68;101412.94;5035203;28;20045;-82
2022/03/19 10:27:38;;;;;;;18.10;12.70;;;;;;;12.14;49.00;101404.16;5030381;28;20025;-80
2022/03/19 10:30:05;;;;;;;13.82;12.05;;;;;;;12.15;48.75;101400.56;5033518;28;20042;-81
2022/03/19 10:32:30;;;;;;;12.75;11.30;;;;;;;12.19;47.62;101391.44;5029370;28;20037;-80
2022/03/19 10:34:56;;;;;;;13.57;11.02;;;;;;;12.21;47.97;101383.41;5032321;28;20029;-81
2022/03/19 10:37:38;;;;;;;13.05;10.80;;;;;;;12.32;47.27;101380.81;5022494;28;20111;-78
2022/03/19 10:40:05;;;;;;;15.40;11.40;;;;;;;12.36;47.24;101377.03;5028192;28;20128;-79
2022/03/19 10:42:41;;;;;;;15.02;12.15;;;;;;;12.32;46.67;101364.94;5029062;28;20421;-80
2022/03/19 10:45:12;;;;;;;15.93;11.65;;;;;;;12.37;47.18;101370.75;5030002;28;20049;-80
2022/03/19 10:47:44;;;;;;;;;;;;;;;12.43;47.03;101367.66;5032582;28;20029;-79
2022/03/19 10:50:16;;;;;;;16.70;12.43;;;;;;;12.50;47.34;101352.19;5010963;28;20388;-79
2022/03/19 10:52:43;;;;;;;29.50;12.27;;;;;;;12.58;46.67;101345.38;5029343;28;20048;-80
2022/03/19 10:55:09;;;;;;;18.08;12.63;;;;;;;12.60;46.51;101343.47;4997474;28;20051;-80
2022/03/19 10:57:35;;;;;;;13.82;11.98;;;;;;;12.59;46.91;101336.50;5013135;28;20115;-77
2022/03/19 11:00:00;;;;;;;17.33;12.43;;;;;;;12.63;47.05;101332.66;5030780;28;20140;-80
2022/03/19 11:02:28;;;;;;;21.55;14.07;;;;;;;12.67;46.86;101318.22;5030831;28;20057;-79
2022/03/19 11:04:57;;;;;;;17.45;12.45;;;;;;;12.72;46.97;101315.25;5031525;28;20036;-80
2022/03/19 11:07:24;;;;;;;15.60;12.05;;;;;;;12.80;46.75;101312.00;5032659;28;20050;-79
2022/03/19 11:09:53;;;;;;;19.55;12.68;;;;;;;12.89;46.05;101308.69;5030548;28;20025;-80
2022/03/19 11:12:24;;;;;;;16.52;12.68;;;;;;;12.80;44.23;101314.66;5032449;28;20034;-78
2022/03/19 11:14:53;;;;;;;17.42;11.88;;;;;;;12.78;44.36;101304.19;5032974;28;20033;-78
2022/03/19 11:17:30;;;;;;;16.73;12.27;;;;;;;12.90;44.13;101297.13;5036812;28;20046;-79
2022/03/19 11:20:01;;;;;;;17.25;12.68;;;;;;;13.00;43.32;101292.81;5024067;28;20033;-77
2022/03/19 11:22:54;;;;;;;17.58;12.70;;;;;;;13.08;41.99;101290.41;5040565;28;20033;-77
2022/03/19 11:25:26;;;;;;;18.45;11.77;;;;;;;13.13;42.52;101283.81;5031011;28;20056;-79
2022/03/19 11:27:58;;;;;;;17.75;12.07;;;;;;;13.12;42.81;101281.31;5030013;28;20038;-76
2022/03/19 11:30:26;;;;;;;14.13;12.02;;;;;;;13.20;42.71;101278.06;5032446;28;20099;-77